Aérodrome :
LOGIN :

S'inscrire | Disclaimer

   EN    FR    IT 

 










Légende :    VFR   VFR Marginal   IFR   IFR Intensif   IFR Très Intensif
Visi : 
Plafond : 
>= 8 km
>= 3000ft
5 à 8 km
1000 à 3000 ft
1500m à 5 km
500 à 1000 ft
800 à 1500m
200 à 500 ft
< 800m
< 200 ft
Symboles :   Orages  Brouillard  Fortes neiges  Fortes précipitations  Vent > 20 kt
SIGMETs :   Divers  Orages  Givrage  Turbulence  Onde Orograph.  Cendres Volcan.







- Altitude de l'aérodrome : 302 ft
- Code IATA : MAH


LEMH - Menorca

DERNIER METAR :
  • 221430Z 25005KT 200V300 9999 SCT025 10/05 Q1009

METARs EXPIRÉS :
  • 221400Z 23006KT 200V270 9999 FEW020 SCT030 09/05 Q1009
  • 221330Z 21007KT 170V260 9999 FEW022 SCT030 10/05 Q1010
  • 221300Z 25004KT 190V290 9999 FEW024 BKN030 10/05 Q1011
  • 221230Z 22005KT 170V280 9999 SCT030 10/04 Q1011
  • 221200Z 25003KT 190V340 9999 FEW020 BKN030 10/04 Q1012

TAF TAF LEMH
Valide du 22 à 15h jusqu'au 23 à 15h UTC


221400Z 2215/2315 30007KT 9999 SCT020 SCT030 TX13/2312Z TN05/2306Z
TEMPO 2216/2223 26015G25KT
PROB30
TEMPO 2220/2302 2000 SHRA SCT020TCU BKN025
BECMG 2304/2307 27015KT
TEMPO 2308/2315 27020G33KT
Pas de NOTAMs connus pour ce terrain.
3 SIGMETs publiés pour la FIR Barcelona (LECB) :
 
Onde orographique forte
LECB SIGMET 7 VALID 221300/221700 LEVA
LECB BARCELONA FIR/UIR SEV MTW FCST WI N3830 W00130 - N39 W00030 - N3840 W00010 - N38 W00130 - N3830 W00130 SFC/FL360 STNR NC=
Onde orographique forte
LECB SIGMET 6 VALID 221300/221700 LEVA
LECB BARCELONA FIR/UIR SEV MTW FCST WI N4010 W00130 - N4110 E00020 - N41 E001 - N4010 W00050 - N4010 W00130 SFC/FL360 STNR NC=
Onde orographique forte
LECB SIGMET 5 VALID 221300/221700 LEVA
LECB BARCELONA FIR/UIR SEV MTW FCST N OF LINE N4230 W00010 - N4230 E00110 FL060/360 STNR NC=



MET'MAP, la Météo Aéronautique d'un coup d'oeil ! - Copyright ORBIFLY Décembre 2007 - Disclaimer

ORBIFLY MET'MAP TEAM :

Programmation & Développement : Alexandra Zaïnal
Conception & Développement : Baudouin d'Aumeries
Co-Programmation & Développement : Marc-Olivier Méhu
Soutien technique & logistique : Manuel Goepfert

Contact : metmap@orbifly.com




SOURCES & CREDITS :

   NOAA